createdAt,value
2023-01-29T00:02:11.524Z,-0.18
2023-01-29T00:04:39.803Z,-0.24
2023-01-29T00:07:08.636Z,-0.28
2023-01-29T00:09:36.659Z,-0.32
2023-01-29T00:12:04.678Z,-0.31
2023-01-29T00:14:32.831Z,-0.32
2023-01-29T00:17:01.236Z,-0.31
2023-01-29T00:19:29.142Z,-0.28
2023-01-29T00:21:57.180Z,-0.30
2023-01-29T00:24:25.013Z,-0.32
2023-01-29T00:26:52.957Z,-0.33
2023-01-29T00:29:21.991Z,-0.33
2023-01-29T00:31:50.246Z,-0.31
2023-01-29T00:34:18.177Z,-0.30
2023-01-29T00:36:47.327Z,-0.29
2023-01-29T00:39:15.407Z,-0.29
2023-01-29T00:42:01.854Z,-0.28
2023-01-29T00:44:48.454Z,-0.29
2023-01-29T00:47:30.973Z,-0.34
2023-01-29T00:49:59.587Z,-0.35
2023-01-29T00:52:28.709Z,-0.33
2023-01-29T00:54:57.731Z,-0.32
2023-01-29T00:57:27.315Z,-0.32
2023-01-29T00:59:55.552Z,-0.30
2023-01-29T01:02:42.648Z,-0.27
2023-01-29T01:05:18.118Z,-0.25
2023-01-29T01:07:50.785Z,-0.24
2023-01-29T01:10:23.255Z,-0.22
2023-01-29T01:12:51.836Z,-0.20
2023-01-29T01:15:19.986Z,-0.19
2023-01-29T01:17:48.976Z,-0.16
2023-01-29T01:20:17.396Z,-0.12
2023-01-29T01:22:45.483Z,-0.08
2023-01-29T01:25:13.357Z,-0.03
2023-01-29T01:27:41.568Z,0.02
2023-01-29T01:30:11.272Z,0.07
2023-01-29T01:32:39.863Z,0.10
2023-01-29T01:35:09.608Z,0.14
2023-01-29T01:37:38.651Z,0.21
2023-01-29T01:40:12.994Z,0.26
2023-01-29T01:42:41.365Z,0.28
2023-01-29T01:45:17.608Z,0.28
2023-01-29T01:47:51.487Z,0.31
2023-01-29T01:50:22.036Z,0.40
2023-01-29T01:52:53.167Z,0.47
2023-01-29T01:55:23.227Z,0.55
2023-01-29T01:57:53.802Z,0.57
2023-01-29T02:00:22.230Z,0.63
2023-01-29T02:03:08.853Z,0.71
2023-01-29T02:05:56.357Z,0.77
2023-01-29T02:08:51.132Z,0.78
2023-01-29T02:11:19.608Z,0.76
2023-01-29T02:13:53.736Z,0.82
2023-01-29T02:16:26.395Z,0.89
2023-01-29T02:18:56.615Z,0.91
2023-01-29T02:21:46.365Z,0.95
2023-01-29T02:24:33.147Z,1.04
2023-01-29T02:27:10.147Z,1.06
2023-01-29T02:29:41.204Z,1.05
2023-01-29T02:32:20.617Z,1.00
2023-01-29T02:35:19.770Z,0.80
2023-01-29T02:38:06.457Z,0.58
2023-01-29T02:40:44.148Z,0.46
2023-01-29T02:43:15.108Z,0.39
2023-01-29T02:46:01.934Z,0.32
2023-01-29T02:48:38.868Z,0.28
2023-01-29T02:51:11.129Z,0.26
2023-01-29T02:53:50.492Z,0.25
2023-01-29T02:56:24.839Z,0.24
2023-01-29T02:58:57.773Z,0.22
2023-01-29T03:01:55.317Z,0.21
2023-01-29T03:04:26.967Z,0.20
2023-01-29T03:06:59.086Z,0.18
2023-01-29T03:09:31.168Z,0.16
2023-01-29T03:12:20.142Z,0.12
2023-01-29T03:15:09.332Z,0.11
2023-01-29T03:17:44.747Z,0.08
2023-01-29T03:20:17.043Z,0.08
2023-01-29T03:22:48.824Z,0.09
2023-01-29T03:25:36.614Z,0.07
2023-01-29T03:28:25.216Z,0.05
2023-01-29T03:31:15.847Z,0.02
2023-01-29T03:33:50.722Z,-0.05
2023-01-29T03:36:27.128Z,-0.06
2023-01-29T03:38:55.078Z,-0.10
2023-01-29T03:41:22.935Z,-0.15
2023-01-29T03:43:51.103Z,-0.20
2023-01-29T03:46:24.590Z,-0.22
2023-01-29T03:49:08.385Z,-0.23
2023-01-29T03:51:55.728Z,-0.23
2023-01-29T03:54:28.351Z,-0.20
2023-01-29T03:56:59.749Z,-0.18
2023-01-29T03:59:27.955Z,-0.14
2023-01-29T04:02:27.452Z,-0.13
2023-01-29T04:04:57.815Z,-0.14
2023-01-29T04:07:26.657Z,-0.14
2023-01-29T04:10:01.964Z,-0.17
2023-01-29T04:12:36.897Z,-0.18
2023-01-29T04:15:08.308Z,-0.23
2023-01-29T04:17:39.852Z,-0.27
2023-01-29T04:20:13.872Z,-0.32
2023-01-29T04:22:45.012Z,-0.35
2023-01-29T04:25:18.441Z,-0.37
2023-01-29T04:27:47.478Z,-0.38
2023-01-29T04:30:21.116Z,-0.38
2023-01-29T04:32:49.398Z,-0.42
2023-01-29T04:35:24.082Z,-0.45
2023-01-29T04:38:06.420Z,-0.46
2023-01-29T04:40:37.699Z,-0.48
2023-01-29T04:43:05.525Z,-0.48
2023-01-29T04:45:33.551Z,-0.44
2023-01-29T04:48:20.578Z,-0.41
2023-01-29T04:51:03.588Z,-0.42
2023-01-29T04:53:54.958Z,-0.41
2023-01-29T04:56:25.985Z,-0.41
2023-01-29T04:58:57.420Z,-0.43
2023-01-29T05:01:29.831Z,-0.39
2023-01-29T05:03:59.253Z,-0.37
2023-01-29T05:06:27.611Z,-0.36
2023-01-29T05:08:56.846Z,-0.37
2023-01-29T05:11:25.413Z,-0.39
2023-01-29T05:13:53.566Z,-0.44
2023-01-29T05:16:26.783Z,-0.47
2023-01-29T05:18:54.820Z,-0.50
2023-01-29T05:21:23.917Z,-0.54
2023-01-29T05:24:09.397Z,-0.55
2023-01-29T05:26:55.603Z,-0.56
2023-01-29T05:29:23.622Z,-0.56
2023-01-29T05:31:51.546Z,-0.55
2023-01-29T05:34:19.668Z,-0.58
2023-01-29T05:36:47.672Z,-0.60
2023-01-29T05:39:15.501Z,-0.60
2023-01-29T05:41:43.883Z,-0.57
2023-01-29T05:44:11.998Z,-0.61
2023-01-29T05:46:40.216Z,-0.71
2023-01-29T05:49:08.068Z,-0.77
2023-01-29T05:51:36.202Z,-0.80
2023-01-29T05:54:04.722Z,-0.84
2023-01-29T05:56:32.477Z,-0.86
2023-01-29T05:59:00.470Z,-0.87
2023-01-29T06:01:28.335Z,-0.89
2023-01-29T06:03:56.336Z,-0.90
2023-01-29T06:06:24.431Z,-0.90
2023-01-29T06:08:52.446Z,-0.88
2023-01-29T06:11:20.724Z,-0.87
2023-01-29T06:13:48.972Z,-0.87
2023-01-29T06:16:17.075Z,-0.87
2023-01-29T06:18:45.065Z,-0.85
2023-01-29T06:21:13.633Z,-0.83
2023-01-29T06:23:41.700Z,-0.80
2023-01-29T06:26:13.727Z,-0.80
2023-01-29T06:28:41.992Z,-0.76
2023-01-29T06:31:30.393Z,-0.73
2023-01-29T06:33:58.745Z,-0.70
2023-01-29T06:36:26.593Z,-0.68
2023-01-29T06:38:54.484Z,-0.68
2023-01-29T06:41:25.728Z,-0.68
2023-01-29T06:43:53.769Z,-0.71
2023-01-29T06:46:21.697Z,-0.71
2023-01-29T06:48:50.075Z,-0.69
2023-01-29T06:51:18.311Z,-0.66
2023-01-29T06:53:46.911Z,-0.63
2023-01-29T06:56:14.895Z,-0.63
2023-01-29T06:58:43.686Z,-0.65
2023-01-29T07:01:17.545Z,-0.64
2023-01-29T07:03:53.185Z,-0.58
2023-01-29T07:06:21.196Z,-0.60
2023-01-29T07:08:49.098Z,-0.61
2023-01-29T07:11:17.413Z,-0.62
2023-01-29T07:13:45.235Z,-0.62
2023-01-29T07:16:13.196Z,-0.60
2023-01-29T07:18:41.096Z,-0.61
2023-01-29T07:21:09.238Z,-0.61
2023-01-29T07:23:37.563Z,-0.55
2023-01-29T07:26:06.073Z,-0.46
2023-01-29T07:28:38.199Z,-0.38
2023-01-29T07:31:06.683Z,-0.34
2023-01-29T07:33:34.670Z,-0.28
2023-01-29T07:36:02.793Z,-0.27
2023-01-29T07:38:30.796Z,-0.29
2023-01-29T07:40:58.608Z,-0.29
2023-01-29T07:43:26.641Z,-0.25
2023-01-29T07:45:54.663Z,-0.18
2023-01-29T07:48:23.638Z,-0.20
2023-01-29T07:50:59.013Z,-0.22
2023-01-29T07:53:28.041Z,-0.17
2023-01-29T07:55:55.913Z,-0.15
2023-01-29T07:58:23.870Z,-0.16
2023-01-29T08:00:51.734Z,-0.16
2023-01-29T08:03:22.763Z,-0.19
2023-01-29T08:05:50.720Z,-0.18
2023-01-29T08:08:19.444Z,-0.20
2023-01-29T08:10:47.490Z,-0.23
2023-01-29T08:13:15.380Z,-0.25
2023-01-29T08:15:45.153Z,-0.26
2023-01-29T08:18:13.763Z,-0.27
2023-01-29T08:20:41.773Z,-0.31
2023-01-29T08:23:12.705Z,-0.30
2023-01-29T08:25:40.756Z,-0.29
2023-01-29T08:28:09.012Z,-0.25
2023-01-29T08:30:37.073Z,-0.22
2023-01-29T08:33:04.972Z,-0.18
2023-01-29T08:35:32.889Z,-0.16
2023-01-29T08:38:03.589Z,-0.15
2023-01-29T08:40:33.547Z,-0.15
2023-01-29T08:43:03.536Z,-0.14
2023-01-29T08:45:37.055Z,-0.10
2023-01-29T08:48:05.374Z,-0.06
2023-01-29T08:50:34.969Z,-0.01
2023-01-29T08:53:04.095Z,0.05
2023-01-29T08:55:32.004Z,0.09
2023-01-29T08:58:00.062Z,0.16
2023-01-29T09:00:28.199Z,0.21
2023-01-29T09:02:56.286Z,0.24
2023-01-29T09:05:24.727Z,0.28
2023-01-29T09:07:54.207Z,0.32
2023-01-29T09:10:22.671Z,0.37
2023-01-29T09:12:50.715Z,0.41
2023-01-29T09:15:19.172Z,0.48
2023-01-29T09:17:49.488Z,0.55
2023-01-29T09:20:18.065Z,0.66
2023-01-29T09:22:46.528Z,0.74
2023-01-29T09:25:15.165Z,0.80
2023-01-29T09:27:43.533Z,0.86
2023-01-29T09:30:12.857Z,0.92
2023-01-29T09:32:53.221Z,0.92
2023-01-29T09:35:22.985Z,0.95
2023-01-29T09:37:51.009Z,1.01
2023-01-29T09:40:39.175Z,1.09
2023-01-29T09:43:22.741Z,1.24
2023-01-29T09:45:56.352Z,1.36
2023-01-29T09:48:26.835Z,1.42
2023-01-29T09:50:57.220Z,1.51
2023-01-29T09:53:32.691Z,1.62
2023-01-29T09:56:29.087Z,1.59
2023-01-29T09:59:00.554Z,1.60
2023-01-29T10:01:51.286Z,1.65
2023-01-29T10:04:31.209Z,1.76
2023-01-29T10:07:17.237Z,1.80
2023-01-29T10:09:57.666Z,1.77
2023-01-29T10:12:28.879Z,1.71
2023-01-29T10:15:06.105Z,1.65
2023-01-29T10:17:43.387Z,1.74
2023-01-29T10:20:29.635Z,1.84
2023-01-29T10:23:18.584Z,1.86
2023-01-29T10:25:47.504Z,1.83
2023-01-29T10:28:21.446Z,1.78
2023-01-29T10:30:50.645Z,1.77
2023-01-29T10:33:23.903Z,1.77
2023-01-29T10:35:55.897Z,1.81
2023-01-29T10:38:44.884Z,1.83
2023-01-29T10:41:31.182Z,1.78
2023-01-29T10:43:59.132Z,1.76
2023-01-29T10:46:45.781Z,1.73
2023-01-29T10:49:19.739Z,1.70
2023-01-29T10:51:56.901Z,1.68
2023-01-29T10:54:40.784Z,1.64
2023-01-29T10:57:20.793Z,1.60
2023-01-29T10:59:52.107Z,1.54
2023-01-29T11:02:22.993Z,1.54
2023-01-29T11:04:51.618Z,1.53
2023-01-29T11:07:22.143Z,1.43
2023-01-29T11:10:09.986Z,1.32
2023-01-29T11:12:39.014Z,1.24
2023-01-29T11:15:14.821Z,1.19
2023-01-29T11:18:01.003Z,1.12
2023-01-29T11:20:30.116Z,1.02
2023-01-29T11:22:59.397Z,0.91
2023-01-29T11:25:29.885Z,0.85
2023-01-29T11:28:01.941Z,0.74
2023-01-29T11:30:34.542Z,0.66
2023-01-29T11:33:05.490Z,0.60
2023-01-29T11:35:34.080Z,0.56
2023-01-29T11:38:22.798Z,0.48
2023-01-29T11:40:50.965Z,0.47
2023-01-29T11:43:27.571Z,0.46
2023-01-29T11:45:57.733Z,0.47
2023-01-29T11:48:30.449Z,0.50
2023-01-29T11:51:04.863Z,0.51
2023-01-29T11:53:44.359Z,0.58
2023-01-29T11:56:29.073Z,0.70
2023-01-29T11:58:58.099Z,0.77
2023-01-29T12:01:40.341Z,0.80
2023-01-29T12:04:24.789Z,0.84
2023-01-29T12:06:53.785Z,0.87
2023-01-29T12:09:27.374Z,0.85
2023-01-29T12:11:55.326Z,0.86
2023-01-29T12:14:37.025Z,0.85
2023-01-29T12:17:08.873Z,0.79
2023-01-29T12:19:39.608Z,0.73
2023-01-29T12:22:16.882Z,0.74
2023-01-29T12:24:59.122Z,0.72
2023-01-29T12:27:46.403Z,0.70
2023-01-29T12:30:36.648Z,0.74
2023-01-29T12:33:12.670Z,0.82
2023-01-29T12:35:47.267Z,0.92
2023-01-29T12:38:19.030Z,0.93
2023-01-29T12:40:58.204Z,0.92
2023-01-29T12:43:37.831Z,0.93
2023-01-29T12:46:09.799Z,0.91
2023-01-29T12:48:39.701Z,0.79
2023-01-29T12:51:09.995Z,0.69
2023-01-29T12:53:39.944Z,0.61
2023-01-29T12:56:29.354Z,0.50
2023-01-29T12:58:59.420Z,0.44
2023-01-29T13:01:36.908Z,0.39
2023-01-29T13:04:16.857Z,0.35
2023-01-29T13:06:55.254Z,0.29
2023-01-29T13:09:26.946Z,0.25
2023-01-29T13:11:57.958Z,0.26
2023-01-29T13:14:31.825Z,0.29
2023-01-29T13:17:10.375Z,0.32
2023-01-29T13:19:41.331Z,0.31
2023-01-29T13:22:22.396Z,0.29
2023-01-29T13:25:03.561Z,0.30
2023-01-29T13:27:34.479Z,0.32
2023-01-29T13:30:03.368Z,0.28
2023-01-29T13:32:32.694Z,0.21
2023-01-29T13:35:20.917Z,0.15
2023-01-29T13:37:53.958Z,0.11
2023-01-29T13:40:24.852Z,0.09
2023-01-29T13:42:54.387Z,0.07
2023-01-29T13:45:35.714Z,0.03
2023-01-29T13:48:12.732Z,-0.04
2023-01-29T13:50:42.688Z,-0.09
2023-01-29T13:53:21.160Z,-0.15
2023-01-29T13:55:49.122Z,-0.19
2023-01-29T13:58:46.798Z,-0.21
2023-01-29T14:01:14.786Z,-0.23
2023-01-29T14:04:03.622Z,-0.18
2023-01-29T14:06:38.435Z,-0.16
2023-01-29T14:09:26.273Z,-0.16
2023-01-29T14:11:54.411Z,-0.15
2023-01-29T14:14:40.758Z,-0.15
2023-01-29T14:17:08.855Z,-0.19
2023-01-29T14:19:36.863Z,-0.22
2023-01-29T14:22:05.641Z,-0.24
2023-01-29T14:24:33.990Z,-0.26
2023-01-29T14:27:03.595Z,-0.28
2023-01-29T14:29:38.226Z,-0.32
2023-01-29T14:32:07.486Z,-0.38
2023-01-29T14:34:41.699Z,-0.39
2023-01-29T14:37:15.529Z,-0.39
2023-01-29T14:39:44.932Z,-0.38
2023-01-29T14:42:16.001Z,-0.38
2023-01-29T14:44:55.955Z,-0.39
2023-01-29T14:47:32.689Z,-0.40
2023-01-29T14:50:02.126Z,-0.44
2023-01-29T14:52:35.897Z,-0.49
2023-01-29T14:55:05.992Z,-0.53
2023-01-29T14:57:35.010Z,-0.55
2023-01-29T15:00:07.277Z,-0.56
2023-01-29T15:02:41.116Z,-0.55
2023-01-29T15:05:14.286Z,-0.56
2023-01-29T15:07:48.920Z,-0.56
2023-01-29T15:10:22.762Z,-0.58
2023-01-29T15:13:03.122Z,-0.62
2023-01-29T15:15:42.703Z,-0.65
2023-01-29T15:18:16.374Z,-0.63
2023-01-29T15:20:44.700Z,-0.64
2023-01-29T15:23:24.670Z,-0.65
2023-01-29T15:25:54.324Z,-0.69
2023-01-29T15:28:22.503Z,-0.73
2023-01-29T15:30:54.102Z,-0.76
2023-01-29T15:33:23.299Z,-0.80
2023-01-29T15:36:06.319Z,-0.78
2023-01-29T15:38:35.232Z,-0.76
2023-01-29T15:41:14.696Z,-0.77
2023-01-29T15:43:50.011Z,-0.82
2023-01-29T15:46:21.156Z,-0.85
2023-01-29T15:48:49.760Z,-0.88
2023-01-29T15:51:20.239Z,-0.90
2023-01-29T15:53:53.339Z,-0.92
2023-01-29T15:56:41.629Z,-0.94
2023-01-29T15:59:15.300Z,-0.91
2023-01-29T16:01:43.506Z,-0.89
2023-01-29T16:04:15.087Z,-0.88
2023-01-29T16:06:43.877Z,-0.87
2023-01-29T16:09:15.926Z,-0.86
2023-01-29T16:11:44.095Z,-0.86
2023-01-29T16:14:17.559Z,-0.86
2023-01-29T16:16:45.651Z,-0.84
2023-01-29T16:19:14.309Z,-0.83
2023-01-29T16:21:45.898Z,-0.82
2023-01-29T16:24:22.211Z,-0.82
2023-01-29T16:26:51.655Z,-0.81
2023-01-29T16:29:21.882Z,-0.81
2023-01-29T16:31:52.216Z,-0.82
2023-01-29T16:34:20.066Z,-0.82
2023-01-29T16:36:48.777Z,-0.78
2023-01-29T16:39:22.451Z,-0.77
2023-01-29T16:42:17.149Z,-0.76
2023-01-29T16:44:51.282Z,-0.79
2023-01-29T16:47:38.572Z,-0.83
2023-01-29T16:50:18.475Z,-0.88
2023-01-29T16:53:03.789Z,-0.94
2023-01-29T16:55:33.576Z,-0.97
2023-01-29T16:58:04.455Z,-0.99
2023-01-29T17:00:33.375Z,-0.99
2023-01-29T17:03:05.179Z,-0.99
2023-01-29T17:05:37.767Z,-1.01
2023-01-29T17:08:06.683Z,-1.04
2023-01-29T17:10:35.973Z,-1.08
2023-01-29T17:13:05.774Z,-1.09
2023-01-29T17:15:46.130Z,-1.10
2023-01-29T17:18:21.568Z,-1.14
2023-01-29T17:20:50.365Z,-1.16
2023-01-29T17:23:18.615Z,-1.19
2023-01-29T17:25:47.029Z,-1.21
2023-01-29T17:28:16.275Z,-1.22
2023-01-29T17:30:50.614Z,-1.22
2023-01-29T17:33:26.127Z,-1.21
2023-01-29T17:35:54.193Z,-1.19
2023-01-29T17:38:26.453Z,-1.20
2023-01-29T17:40:57.353Z,-1.17
2023-01-29T17:43:26.370Z,-1.15
2023-01-29T17:45:54.892Z,-1.13
2023-01-29T17:48:24.023Z,-1.12
2023-01-29T17:50:53.673Z,-1.10
2023-01-29T17:53:23.615Z,-1.05
2023-01-29T17:55:51.864Z,-1.02
2023-01-29T17:58:24.501Z,-1.05
2023-01-29T18:00:53.151Z,-1.10
2023-01-29T18:03:21.725Z,-1.13
2023-01-29T18:05:50.462Z,-1.11
2023-01-29T18:08:18.306Z,-1.12
2023-01-29T18:10:47.013Z,-1.15
2023-01-29T18:13:15.102Z,-1.17
2023-01-29T18:15:43.121Z,-1.21
2023-01-29T18:18:16.041Z,-1.24
2023-01-29T18:20:45.127Z,-1.30
2023-01-29T18:23:13.436Z,-1.31
2023-01-29T18:25:41.569Z,-1.32
2023-01-29T18:28:13.016Z,-1.32
2023-01-29T18:30:42.350Z,-1.31
2023-01-29T18:33:10.472Z,-1.31
2023-01-29T18:35:38.372Z,-1.28
2023-01-29T18:38:06.347Z,-1.28
2023-01-29T18:40:35.165Z,-1.27
2023-01-29T18:43:04.354Z,-1.27
2023-01-29T18:45:32.451Z,-1.27
2023-01-29T18:48:00.576Z,-1.26
2023-01-29T18:50:28.606Z,-1.26
2023-01-29T18:52:56.529Z,-1.30
2023-01-29T18:55:26.504Z,-1.32
2023-01-29T18:58:26.655Z,-1.35
2023-01-29T19:00:42.749Z,-1.37
2023-01-29T19:03:10.939Z,-1.37
2023-01-29T19:05:39.058Z,-1.38
2023-01-29T19:08:07.040Z,-1.41
2023-01-29T19:10:35.176Z,-1.45
2023-01-29T19:13:05.296Z,-1.44
2023-01-29T19:15:34.125Z,-1.45
2023-01-29T19:18:02.135Z,-1.45
2023-01-29T19:20:30.240Z,-1.45
2023-01-29T19:22:58.375Z,-1.43
2023-01-29T19:25:26.276Z,-1.41
2023-01-29T19:27:54.891Z,-1.41
2023-01-29T19:30:23.098Z,-1.41
2023-01-29T19:32:51.877Z,-1.42
2023-01-29T19:35:20.416Z,-1.43
2023-01-29T19:37:48.436Z,-1.43
2023-01-29T19:40:16.476Z,-1.44
2023-01-29T19:42:44.427Z,-1.45
2023-01-29T19:45:12.558Z,-1.47
2023-01-29T19:47:42.155Z,-1.48
2023-01-29T19:50:10.660Z,-1.48
2023-01-29T19:52:51.081Z,-1.48
2023-01-29T19:55:20.437Z,-1.47
2023-01-29T19:57:48.601Z,-1.49
2023-01-29T20:00:17.605Z,-1.50
2023-01-29T20:02:46.027Z,-1.52
2023-01-29T20:05:17.204Z,-1.53
2023-01-29T20:07:45.532Z,-1.55
2023-01-29T20:10:17.745Z,-1.55
2023-01-29T20:12:46.258Z,-1.54
2023-01-29T20:15:14.571Z,-1.54
2023-01-29T20:17:45.542Z,-1.52
2023-01-29T20:20:14.033Z,-1.48
2023-01-29T20:22:42.107Z,-1.46
2023-01-29T20:25:13.782Z,-1.47
2023-01-29T20:27:41.944Z,-1.50
2023-01-29T20:30:10.274Z,-1.53
2023-01-29T20:32:38.175Z,-1.53
2023-01-29T20:35:06.363Z,-1.55
2023-01-29T20:37:34.251Z,-1.59
2023-01-29T20:40:02.313Z,-1.64
2023-01-29T20:42:30.240Z,-1.66
2023-01-29T20:44:58.207Z,-1.69
2023-01-29T20:47:26.045Z,-1.75
2023-01-29T20:49:53.994Z,-1.80
2023-01-29T20:52:21.873Z,-1.84
2023-01-29T20:54:50.318Z,-1.86
2023-01-29T20:57:18.392Z,-1.88
2023-01-29T20:59:46.348Z,-1.90
2023-01-29T21:02:14.235Z,-1.91
2023-01-29T21:04:44.277Z,-1.89
2023-01-29T21:07:12.442Z,-1.89
2023-01-29T21:09:40.460Z,-1.88
2023-01-29T21:12:08.688Z,-1.88
2023-01-29T21:14:36.650Z,-1.89
2023-01-29T21:17:04.971Z,-1.90
2023-01-29T21:19:33.115Z,-1.91
2023-01-29T21:22:01.019Z,-1.93
2023-01-29T21:24:29.009Z,-1.92
2023-01-29T21:26:57.008Z,-1.91
2023-01-29T21:29:24.801Z,-1.91
2023-01-29T21:31:52.764Z,-1.95
2023-01-29T21:34:20.844Z,-1.97
2023-01-29T21:36:48.624Z,-2.03
2023-01-29T21:39:21.118Z,-2.08
2023-01-29T21:42:07.931Z,-2.12
2023-01-29T21:44:36.609Z,-2.15
2023-01-29T21:47:14.374Z,-2.15
2023-01-29T21:49:43.150Z,-2.16
2023-01-29T21:52:12.375Z,-2.16
2023-01-29T21:54:40.862Z,-2.18
2023-01-29T21:57:12.032Z,-2.20
2023-01-29T21:59:40.184Z,-2.22
2023-01-29T22:02:12.039Z,-2.23
2023-01-29T22:04:40.315Z,-2.24
2023-01-29T22:07:08.820Z,-2.26
2023-01-29T22:09:37.264Z,-2.25
2023-01-29T22:12:07.757Z,-2.24
2023-01-29T22:14:35.812Z,-2.25
2023-01-29T22:17:04.173Z,-2.26
2023-01-29T22:19:32.039Z,-2.28
2023-01-29T22:22:00.154Z,-2.29
2023-01-29T22:24:27.975Z,-2.30
2023-01-29T22:26:55.791Z,-2.32
2023-01-29T22:29:23.992Z,-2.33
2023-01-29T22:31:51.768Z,-2.32
2023-01-29T22:34:19.721Z,-2.32
2023-01-29T22:36:47.968Z,-2.31
2023-01-29T22:39:15.772Z,-2.30
2023-01-29T22:41:43.643Z,-2.32
2023-01-29T22:44:11.760Z,-2.33
2023-01-29T22:46:39.888Z,-2.31
2023-01-29T22:49:07.750Z,-2.31
2023-01-29T22:51:35.708Z,-2.29
2023-01-29T22:54:03.546Z,-2.25
2023-01-29T22:56:31.406Z,-2.22
2023-01-29T22:59:00.297Z,-2.21
2023-01-29T23:01:29.919Z,-2.19
2023-01-29T23:03:58.010Z,-2.19
2023-01-29T23:06:26.055Z,-2.18
2023-01-29T23:08:54.022Z,-2.17
2023-01-29T23:11:23.619Z,-2.17
2023-01-29T23:13:53.017Z,-2.18
2023-01-29T23:16:26.996Z,-2.21
2023-01-29T23:18:56.597Z,-2.21
2023-01-29T23:21:25.281Z,-2.20
2023-01-29T23:23:55.329Z,-2.19
2023-01-29T23:26:42.001Z,-2.17
2023-01-29T23:29:10.197Z,-2.17
2023-01-29T23:31:38.966Z,-2.18
2023-01-29T23:34:07.018Z,-2.16
2023-01-29T23:36:35.020Z,-2.15
2023-01-29T23:39:03.053Z,-2.18
2023-01-29T23:41:30.937Z,-2.18
2023-01-29T23:43:58.910Z,-2.18
2023-01-29T23:46:26.800Z,-2.21
2023-01-29T23:48:54.845Z,-2.21
2023-01-29T23:51:22.738Z,-2.21
2023-01-29T23:53:50.826Z,-2.20
2023-01-29T23:56:18.879Z,-2.20
2023-01-29T23:58:46.842Z,-2.19
